Time;durP1;ratioP1;P1;durP2;ratioP2;P2;SDS_P1;SDS_P2;PMS_P1;PMS_P2;Temp;Humidity;BMP_temperature;BMP_pressure;BME280_temperature;BME280_humidity;BME280_pressure;Samples;Min_cycle;Max_cycle;Signal;HPM_P1;HPM_P2
2023/07/23 00:00:24;;;;;;;16.77;11.65;;;13.90;99.90;;;;;;5053088;28;20048;-27
2023/07/23 00:02:50;;;;;;;17.60;10.82;;;13.90;99.90;;;;;;5035779;28;20049;-34
2023/07/23 00:05:16;;;;;;;20.83;10.10;;;13.90;99.90;;;;;;5037443;28;20483;-27
2023/07/23 00:07:42;;;;;;;19.20;11.25;;;13.90;99.90;;;;;;5038272;28;20128;-27
2023/07/23 00:10:09;;;;;;;22.40;10.45;;;13.90;99.90;;;;;;5051873;28;20045;-27
2023/07/23 00:12:35;;;;;;;20.67;12.05;;;13.90;99.90;;;;;;5055576;28;20037;-27
2023/07/23 00:15:02;;;;;;;16.20;9.88;;;13.90;99.90;;;;;;5045476;28;20041;-28
2023/07/23 00:17:28;;;;;;;19.02;11.55;;;13.90;99.90;;;;;;5051097;28;20518;-28
2023/07/23 00:19:54;;;;;;;20.40;11.60;;;13.90;99.90;;;;;;5039790;28;20045;-28
2023/07/23 00:22:20;;;;;;;15.65;10.10;;;13.90;99.90;;;;;;5056026;28;20048;-28
2023/07/23 00:24:46;;;;;;;19.27;9.80;;;13.80;99.90;;;;;;5056547;28;20471;-28
2023/07/23 00:27:13;;;;;;;16.65;8.38;;;13.80;99.90;;;;;;5054231;28;20049;-31
2023/07/23 00:29:40;;;;;;;19.23;10.73;;;13.90;99.90;;;;;;5056592;28;20049;-30
2023/07/23 00:32:06;;;;;;;13.43;8.10;;;13.90;99.90;;;;;;5050757;28;20041;-33
2023/07/23 00:34:32;;;;;;;15.18;7.68;;;13.90;99.90;;;;;;5035790;28;20103;-33
2023/07/23 00:36:59;;;;;;;15.15;7.43;;;13.90;99.90;;;;;;5034262;28;20042;-35
2023/07/23 00:39:25;;;;;;;16.25;9.63;;;13.80;99.90;;;;;;5035394;28;20136;-33
2023/07/23 00:41:51;;;;;;;14.18;8.73;;;13.90;99.90;;;;;;5035377;28;20049;-32
2023/07/23 00:44:16;;;;;;;15.13;9.57;;;13.90;99.90;;;;;;5033853;28;20049;-33
2023/07/23 00:46:43;;;;;;;11.93;7.13;;;13.80;99.90;;;;;;5052862;28;20047;-32
2023/07/23 00:49:11;;;;;;;14.05;7.85;;;13.80;99.90;;;;;;5054398;28;20052;-32
2023/07/23 00:51:38;;;;;;;15.45;8.80;;;13.70;99.90;;;;;;5035293;28;20054;-34
2023/07/23 00:54:04;;;;;;;16.27;8.77;;;13.80;99.90;;;;;;5035483;28;20457;-34
2023/07/23 00:56:30;;;;;;;14.07;7.93;;;13.80;99.90;;;;;;5039239;28;20514;-33
2023/07/23 00:58:56;;;;;;;16.35;9.90;;;13.80;99.90;;;;;;5034667;28;20403;-35
2023/07/23 01:01:22;;;;;;;19.50;11.30;;;13.80;99.90;;;;;;5038201;28;20518;-36
2023/07/23 01:03:50;;;;;;;14.57;8.85;;;13.80;99.90;;;;;;5034911;28;20053;-34
2023/07/23 01:06:17;;;;;;;22.17;9.57;;;13.70;99.90;;;;;;5038149;28;20487;-36
2023/07/23 01:08:44;;;;;;;23.27;11.27;;;13.80;99.90;;;;;;5052293;28;20514;-33
2023/07/23 01:11:11;;;;;;;19.98;11.40;;;14.70;99.90;;;;;;5055483;28;20048;-34
2023/07/23 01:13:38;;;;;;;21.25;12.10;;;14.60;99.90;;;;;;5034572;28;20041;-33
2023/07/23 01:16:09;;;;;;;19.48;9.52;;;14.60;99.90;;;;;;5034434;28;20044;-37
2023/07/23 01:18:39;;;;;;;15.65;8.15;;;14.70;99.90;;;;;;5034972;28;20048;-37
2023/07/23 01:21:05;;;;;;;16.33;8.75;;;14.60;99.90;;;;;;5043482;28;20048;-38
2023/07/23 01:23:31;;;;;;;21.58;10.63;;;14.70;99.90;;;;;;5041455;28;20049;-34
2023/07/23 01:25:57;;;;;;;19.30;9.77;;;14.70;99.90;;;;;;5033845;28;20127;-33
2023/07/23 01:28:23;;;;;;;15.45;9.20;;;14.80;99.90;;;;;;5038139;28;20038;-35
2023/07/23 01:30:49;;;;;;;20.27;9.50;;;14.80;99.90;;;;;;5051004;28;20449;-33
2023/07/23 01:33:15;;;;;;;19.23;10.35;;;14.70;99.90;;;;;;5051007;28;20045;-32
2023/07/23 01:35:43;;;;;;;16.20;9.07;;;14.70;99.90;;;;;;5039456;28;20045;-33
2023/07/23 01:38:10;;;;;;;16.80;9.45;;;14.70;99.90;;;;;;5054530;28;20084;-31
2023/07/23 01:40:36;;;;;;;14.93;8.65;;;14.70;99.90;;;;;;5053506;28;20494;-30
2023/07/23 01:43:02;;;;;;;17.83;9.40;;;14.60;99.90;;;;;;5054431;28;20045;-29
2023/07/23 01:45:29;;;;;;;15.32;9.70;;;14.60;99.90;;;;;;5051334;28;20037;-29
2023/07/23 01:47:54;;;;;;;12.85;7.32;;;14.70;99.90;;;;;;5017715;28;20052;-28
2023/07/23 01:50:20;;;;;;;18.00;10.02;;;14.70;99.90;;;;;;5033991;28;20491;-29
2023/07/23 01:52:46;;;;;;;14.63;9.57;;;14.70;99.90;;;;;;5034748;28;20046;-28
2023/07/23 01:55:11;;;;;;;15.98;8.95;;;14.50;99.90;;;;;;5034297;28;20103;-27
2023/07/23 01:57:37;;;;;;;16.10;9.18;;;14.60;99.90;;;;;;5035111;28;20049;-27
2023/07/23 02:00:04;;;;;;;13.13;8.05;;;14.60;99.90;;;;;;5043159;28;20069;-26
2023/07/23 02:02:29;;;;;;;16.17;9.60;;;14.60;99.90;;;;;;5054104;28;20475;-28
2023/07/23 02:04:55;;;;;;;15.77;8.40;;;14.60;99.90;;;;;;5051687;28;20048;-27
2023/07/23 02:07:21;;;;;;;14.20;8.18;;;14.60;99.90;;;;;;5034015;28;20138;-27
2023/07/23 02:09:53;;;;;;;15.82;7.95;;;14.70;99.90;;;;;;5035566;28;20040;-28
2023/07/23 02:12:19;;;;;;;18.90;7.50;;;14.70;99.90;;;;;;5049875;28;20045;-27
2023/07/23 02:14:45;;;;;;;13.70;8.52;;;14.60;99.90;;;;;;5052756;28;20302;-26
2023/07/23 02:17:11;;;;;;;12.50;7.72;;;14.70;99.90;;;;;;5052973;28;20128;-26
2023/07/23 02:19:37;;;;;;;9.30;5.40;;;14.50;99.90;;;;;;5051131;28;20120;-25
2023/07/23 02:22:05;;;;;;;16.15;10.07;;;14.60;99.90;;;;;;5044893;28;20055;-25
2023/07/23 02:24:31;;;;;;;15.02;7.72;;;14.60;99.90;;;;;;5052866;28;20052;-24
2023/07/23 02:26:56;;;;;;;15.35;8.13;;;14.60;99.90;;;;;;5049034;28;20037;-24
2023/07/23 02:29:22;;;;;;;15.95;9.07;;;14.60;99.90;;;;;;5038863;28;20479;-24
2023/07/23 02:31:48;;;;;;;18.60;8.25;;;14.60;99.90;;;;;;5041258;28;20046;-23
2023/07/23 02:34:14;;;;;;;17.25;8.45;;;14.60;99.90;;;;;;5051656;28;20061;-23
2023/07/23 02:36:40;;;;;;;12.85;7.60;;;14.50;99.90;;;;;;5048444;28;20046;-24
2023/07/23 02:39:06;;;;;;;16.58;9.18;;;14.50;99.90;;;;;;5015708;28;20107;-24
2023/07/23 02:41:31;;;;;;;14.95;8.55;;;14.60;99.90;;;;;;5034248;28;20111;-24
2023/07/23 02:43:57;;;;;;;13.65;7.22;;;14.50;99.90;;;;;;5041571;28;20068;-24
2023/07/23 02:46:23;;;;;;;13.55;8.40;;;14.60;99.90;;;;;;5053586;28;20419;-24
2023/07/23 02:48:49;;;;;;;12.40;7.53;;;14.50;99.90;;;;;;5031519;28;20049;-24
2023/07/23 02:51:15;;;;;;;12.15;8.00;;;14.60;99.90;;;;;;5032311;28;20042;-24
2023/07/23 02:53:40;;;;;;;10.70;7.13;;;14.50;99.90;;;;;;5033491;28;20045;-25
2023/07/23 02:56:06;;;;;;;10.48;5.72;;;14.50;99.90;;;;;;5015899;28;20053;-25
2023/07/23 02:58:32;;;;;;;12.77;7.18;;;14.50;99.90;;;;;;5033514;28;20053;-25
2023/07/23 03:00:57;;;;;;;14.20;7.40;;;14.50;99.90;;;;;;5033890;28;20038;-26
2023/07/23 03:03:24;;;;;;;16.27;9.20;;;14.50;99.90;;;;;;5031942;28;20487;-24
2023/07/23 03:05:52;;;;;;;9.55;6.75;;;14.50;99.90;;;;;;5037641;28;20041;-24
2023/07/23 03:08:17;;;;;;;10.68;6.45;;;14.60;99.90;;;;;;5038114;28;20057;-24
2023/07/23 03:10:44;;;;;;;11.75;6.93;;;14.60;99.90;;;;;;5033586;28;20038;-24
2023/07/23 03:13:10;;;;;;;13.70;6.97;;;14.60;99.90;;;;;;5036440;28;20049;-23
2023/07/23 03:15:36;;;;;;;13.32;7.97;;;14.60;99.90;;;;;;5050758;28;20060;-25
2023/07/23 03:18:02;;;;;;;12.02;7.97;;;14.50;99.90;;;;;;5044818;28;20053;-24
2023/07/23 03:20:28;;;;;;;13.07;8.15;;;14.60;99.90;;;;;;5053181;28;20052;-24
2023/07/23 03:22:54;;;;;;;11.43;6.95;;;14.50;99.90;;;;;;5044155;28;20439;-24
2023/07/23 03:25:20;;;;;;;9.57;5.63;;;14.60;99.90;;;;;;5034995;28;20041;-23
2023/07/23 03:27:45;;;;;;;11.75;6.80;;;14.60;99.90;;;;;;5041176;28;20041;-23
2023/07/23 03:30:11;;;;;;;10.98;5.93;;;14.60;99.90;;;;;;5055701;28;20047;-23
2023/07/23 03:32:38;;;;;;;10.50;6.38;;;14.60;99.90;;;;;;5046905;28;20530;-24
2023/07/23 03:35:04;;;;;;;15.35;7.22;;;14.50;99.90;;;;;;5051442;28;20086;-23
2023/07/23 03:37:30;;;;;;;12.43;7.60;;;14.50;99.90;;;;;;5054496;28;20052;-22
2023/07/23 03:39:56;;;;;;;14.40;8.93;;;14.60;99.90;;;;;;5036835;28;20037;-22
2023/07/23 03:42:24;;;;;;;11.77;7.38;;;14.60;99.90;;;;;;5019898;28;20468;-22
2023/07/23 03:44:50;;;;;;;13.23;7.88;;;14.50;99.90;;;;;;5037058;28;20049;-21
2023/07/23 03:47:23;;;;;;;13.95;8.13;;;14.60;99.90;;;;;;5036700;28;20475;-21
2023/07/23 03:49:49;;;;;;;12.77;8.00;;;14.60;99.90;;;;;;5039038;28;20391;-21
2023/07/23 03:52:15;;;;;;;12.38;6.07;;;14.60;99.90;;;;;;5038160;28;20049;-21
2023/07/23 03:54:43;;;;;;;13.10;8.43;;;14.50;99.90;;;;;;5055350;28;20049;-22
2023/07/23 03:57:09;;;;;;;13.80;8.13;;;14.50;99.90;;;;;;5038674;28;20486;-21
2023/07/23 03:59:37;;;;;;;14.00;8.93;;;14.50;99.90;;;;;;5056455;28;20047;-21
2023/07/23 04:02:03;;;;;;;14.80;9.60;;;14.50;99.90;;;;;;5052665;28;20049;-21
2023/07/23 04:04:29;;;;;;;17.02;9.82;;;14.50;99.90;;;;;;5049621;28;20041;-21
2023/07/23 04:06:55;;;;;;;17.77;9.85;;;14.50;99.90;;;;;;5054640;28;20087;-21
2023/07/23 04:09:20;;;;;;;12.85;8.77;;;14.50;99.90;;;;;;5054931;28;20052;-21
2023/07/23 04:11:46;;;;;;;15.68;9.18;;;14.50;99.90;;;;;;5038315;28;20107;-21
2023/07/23 04:14:12;;;;;;;13.52;9.57;;;14.40;99.90;;;;;;5036692;28;20049;-25
2023/07/23 04:16:38;;;;;;;15.27;10.35;;;14.40;99.90;;;;;;5042220;28;20079;-21
2023/07/23 04:19:04;;;;;;;20.15;9.88;;;14.50;99.90;;;;;;5048136;28;20056;-21
2023/07/23 04:21:30;;;;;;;19.20;10.98;;;14.50;99.90;;;;;;5035149;28;20045;-21
2023/07/23 04:23:57;;;;;;;18.70;10.32;;;14.50;99.90;;;;;;5036620;28;20045;-21
2023/07/23 04:26:26;;;;;;;19.17;10.93;;;14.50;99.90;;;;;;5036417;28;20077;-21
2023/07/23 04:28:52;;;;;;;15.48;8.88;;;14.50;99.90;;;;;;5035549;28;20069;-21
2023/07/23 04:31:18;;;;;;;15.13;9.70;;;14.50;99.90;;;;;;5050588;28;20033;-21
2023/07/23 04:33:44;;;;;;;17.90;11.00;;;14.50;99.90;;;;;;5036671;28;20049;-21
2023/07/23 04:36:10;;;;;;;18.17;9.98;;;14.50;99.90;;;;;;5052053;28;20048;-22
2023/07/23 04:38:36;;;;;;;15.70;9.25;;;14.60;99.90;;;;;;5045688;28;20073;-21
2023/07/23 04:41:02;;;;;;;16.73;9.75;;;14.50;99.90;;;;;;5054982;28;20162;-21
2023/07/23 04:43:28;;;;;;;22.88;10.07;;;14.50;99.90;;;;;;5054708;28;20076;-21
2023/07/23 04:45:54;;;;;;;16.77;10.18;;;14.50;99.90;;;;;;5053758;28;20048;-21
2023/07/23 04:48:22;;;;;;;17.20;10.13;;;14.50;99.90;;;;;;5045100;28;20068;-20
2023/07/23 04:51:02;;;;;;;16.33;10.18;;;14.50;99.90;;;;;;5054289;28;20045;-21
2023/07/23 04:53:28;;;;;;;17.85;9.65;;;14.50;99.90;;;;;;5055717;28;20052;-21
2023/07/23 04:55:56;;;;;;;18.05;9.45;;;14.50;99.90;;;;;;5054549;28;20048;-21
2023/07/23 04:58:23;;;;;;;19.45;11.15;;;14.70;99.90;;;;;;5050174;28;20506;-21
2023/07/23 05:00:49;;;;;;;17.25;10.15;;;14.60;99.90;;;;;;5051270;28;20044;-21
2023/07/23 05:03:15;;;;;;;18.85;9.27;;;14.60;99.90;;;;;;5037882;28;20403;-21
2023/07/23 05:05:49;;;;;;;18.38;11.20;;;14.50;99.90;;;;;;5048945;28;20127;-21
2023/07/23 05:08:16;;;;;;;20.05;11.77;;;14.60;99.90;;;;;;5049523;28;20119;-22
2023/07/23 05:10:42;;;;;;;18.13;11.52;;;14.60;99.90;;;;;;5043925;28;20589;-22
2023/07/23 05:13:07;;;;;;;16.58;9.70;;;14.60;99.90;;;;;;5052909;28;20124;-22
2023/07/23 05:15:33;;;;;;;18.25;11.27;;;14.60;99.90;;;;;;5052437;28;20040;-22
2023/07/23 05:17:59;;;;;;;16.92;10.88;;;14.60;99.90;;;;;;5051933;28;20041;-22
2023/07/23 05:20:24;;;;;;;19.40;10.48;;;14.60;99.90;;;;;;5047402;28;20041;-22
2023/07/23 05:22:51;;;;;;;18.33;11.65;;;14.50;99.90;;;;;;5039096;28;20049;-22
2023/07/23 05:25:17;;;;;;;14.20;9.73;;;14.50;99.90;;;;;;5054790;28;20445;-22
2023/07/23 05:27:42;;;;;;;19.15;10.88;;;14.50;99.90;;;;;;5045900;28;20053;-22
2023/07/23 05:30:08;;;;;;;18.17;10.25;;;14.50;99.90;;;;;;5034721;28;20041;-22
2023/07/23 05:32:34;;;;;;;18.50;10.60;;;14.60;99.90;;;;;;5034763;28;20037;-22
2023/07/23 05:35:01;;;;;;;17.98;9.18;;;14.50;99.90;;;;;;5051233;28;20138;-21
2023/07/23 05:37:26;;;;;;;18.95;9.68;;;14.50;99.90;;;;;;5054565;28;20479;-21
2023/07/23 05:39:53;;;;;;;17.83;10.23;;;14.50;99.90;;;;;;5047052;28;20103;-22
2023/07/23 05:42:20;;;;;;;19.60;10.98;;;14.50;99.90;;;;;;5034583;28;20061;-21
2023/07/23 05:44:46;;;;;;;19.63;9.52;;;14.50;99.90;;;;;;5034518;28;20042;-22
2023/07/23 05:47:11;;;;;;;18.23;11.27;;;14.50;99.90;;;;;;5033769;28;20056;-22
2023/07/23 05:49:37;;;;;;;21.75;11.75;;;14.50;99.90;;;;;;5034391;28;20045;-21
2023/07/23 05:52:06;;;;;;;17.40;11.20;;;14.50;99.90;;;;;;5034773;28;20130;-22
2023/07/23 05:54:32;;;;;;;20.27;12.25;;;15.20;99.90;;;;;;5034638;28;20407;-22
2023/07/23 05:56:58;;;;;;;18.50;12.48;;;15.50;99.90;;;;;;5050035;28;20036;-22
2023/07/23 05:59:24;;;;;;;23.13;13.18;;;15.40;99.90;;;;;;5054213;28;20048;-22
2023/07/23 06:01:50;;;;;;;19.00;12.10;;;15.50;99.90;;;;;;5053207;28;20415;-22
2023/07/23 06:04:16;;;;;;;19.33;12.32;;;15.30;99.90;;;;;;5043745;28;20041;-22
2023/07/23 06:06:42;;;;;;;22.08;12.80;;;15.50;99.90;;;;;;5033831;28;20502;-22
2023/07/23 06:09:08;;;;;;;22.90;13.57;;;15.40;99.90;;;;;;5042629;28;20045;-22
2023/07/23 06:11:34;;;;;;;24.25;13.20;;;15.40;99.90;;;;;;5040588;28;20120;-22
2023/07/23 06:14:00;;;;;;;21.10;12.70;;;15.40;99.90;;;;;;5032915;28;20124;-22
2023/07/23 06:16:25;;;;;;;24.60;12.88;;;15.40;99.90;;;;;;5034218;28;20120;-23
2023/07/23 06:18:52;;;;;;;18.92;12.77;;;15.40;99.90;;;;;;5049348;28;20051;-23
2023/07/23 06:21:17;;;;;;;21.83;12.73;;;15.50;99.90;;;;;;5045890;28;20038;-23
2023/07/23 06:23:43;;;;;;;17.50;12.43;;;15.60;99.90;;;;;;5033942;28;20047;-22
2023/07/23 06:26:09;;;;;;;20.95;12.43;;;15.50;99.90;;;;;;5034055;28;20235;-23
2023/07/23 06:28:35;;;;;;;22.05;13.20;;;15.80;99.90;;;;;;5041251;28;20562;-23
2023/07/23 06:31:00;;;;;;;20.25;12.55;;;15.70;99.90;;;;;;5051922;28;20128;-22
2023/07/23 06:33:29;;;;;;;19.85;12.25;;;15.70;99.90;;;;;;5050893;28;20049;-23
2023/07/23 06:35:54;;;;;;;19.67;11.77;;;15.70;99.90;;;;;;5050460;28;20056;-24
2023/07/23 06:38:20;;;;;;;17.70;12.40;;;15.80;99.90;;;;;;5052720;28;20041;-23
2023/07/23 06:40:51;;;;;;;20.52;12.23;;;15.80;99.90;;;;;;5052702;28;20132;-23
2023/07/23 06:43:17;;;;;;;20.38;11.30;;;15.90;99.90;;;;;;5052636;28;20049;-22
2023/07/23 06:45:43;;;;;;;14.88;10.73;;;15.90;99.90;;;;;;5053544;28;20037;-22
2023/07/23 06:48:10;;;;;;;15.93;11.38;;;15.80;99.90;;;;;;5036388;28;20085;-22
2023/07/23 06:50:36;;;;;;;17.65;10.85;;;15.80;99.90;;;;;;5043759;28;20056;-22
2023/07/23 06:53:02;;;;;;;16.15;11.05;;;15.90;99.90;;;;;;5053230;28;20041;-26
2023/07/23 06:55:28;;;;;;;19.50;11.00;;;15.80;99.90;;;;;;5037231;28;20483;-22
2023/07/23 06:57:54;;;;;;;15.73;10.60;;;15.90;99.90;;;;;;5054259;28;20194;-22
2023/07/23 07:00:20;;;;;;;14.50;10.77;;;15.90;99.90;;;;;;5050053;28;20159;-22
2023/07/23 07:02:45;;;;;;;19.95;11.20;;;15.80;99.90;;;;;;5028476;28;20096;-22
2023/07/23 07:05:11;;;;;;;20.45;10.98;;;15.90;99.90;;;;;;5049663;28;20078;-22
2023/07/23 07:07:38;;;;;;;11.52;7.65;;;15.70;99.90;;;;;;5051909;28;20045;-22
2023/07/23 07:10:07;;;;;;;17.15;10.10;;;15.80;99.90;;;;;;5039485;28;20467;-22
2023/07/23 07:12:34;;;;;;;18.50;11.82;;;15.80;99.90;;;;;;5048806;28;20045;-22
2023/07/23 07:14:59;;;;;;;13.43;8.88;;;15.90;99.90;;;;;;5040358;28;20054;-22
2023/07/23 07:17:25;;;;;;;17.13;10.68;;;15.90;99.90;;;;;;5039068;28;20561;-22
2023/07/23 07:19:51;;;;;;;19.63;10.15;;;15.90;99.90;;;;;;5056318;28;20044;-22
2023/07/23 07:22:17;;;;;;;12.93;7.35;;;15.90;99.90;;;;;;5049639;28;20464;-22
2023/07/23 07:24:42;;;;;;;18.60;11.77;;;15.90;99.90;;;;;;5051150;28;20045;-21
2023/07/23 07:27:09;;;;;;;14.43;9.32;;;15.90;99.90;;;;;;5055246;28;20045;-23
2023/07/23 07:29:39;;;;;;;19.17;12.35;;;15.80;99.90;;;;;;5037628;28;20121;-21
2023/07/23 07:32:09;;;;;;;16.73;10.18;;;15.90;99.90;;;;;;5038104;28;20052;-22
2023/07/23 07:34:35;;;;;;;18.20;11.85;;;15.90;99.90;;;;;;5057038;28;20060;-22
2023/07/23 07:37:00;;;;;;;23.02;11.05;;;16.00;99.90;;;;;;5055434;28;20617;-22
2023/07/23 07:39:26;;;;;;;16.33;10.65;;;16.00;99.90;;;;;;5055290;28;20056;-22
2023/07/23 07:41:53;;;;;;;18.33;12.77;;;15.90;99.90;;;;;;5036887;28;20541;-22
2023/07/23 07:44:20;;;;;;;23.63;11.32;;;15.90;99.90;;;;;;5037077;28;20502;-22
2023/07/23 07:46:46;;;;;;;16.20;8.43;;;16.00;99.90;;;;;;5036756;28;20041;-22
2023/07/23 07:49:12;;;;;;;16.35;9.00;;;16.10;99.90;;;;;;5037084;28;20186;-22
2023/07/23 07:51:39;;;;;;;17.50;9.95;;;15.90;99.90;;;;;;5037177;28;20373;-23
2023/07/23 07:54:05;;;;;;;18.90;10.70;;;16.10;99.90;;;;;;5053245;28;20479;-22
2023/07/23 07:56:31;;;;;;;18.42;11.07;;;16.10;99.90;;;;;;5045880;28;20051;-22
2023/07/23 07:58:57;;;;;;;18.08;9.85;;;16.00;99.90;;;;;;5036537;28;20081;-22
2023/07/23 08:01:23;;;;;;;23.13;13.23;;;16.00;99.90;;;;;;5037751;28;20699;-23
2023/07/23 08:03:48;;;;;;;26.67;12.80;;;16.00;99.90;;;;;;5037364;28;20050;-23
2023/07/23 08:06:16;;;;;;;19.38;11.88;;;16.00;99.90;;;;;;5018669;28;20140;-23
2023/07/23 08:08:43;;;;;;;25.58;14.32;;;16.10;99.90;;;;;;5049843;28;20072;-24
2023/07/23 08:11:09;;;;;;;20.30;12.48;;;16.20;99.90;;;;;;5035667;28;20041;-23
2023/07/23 08:13:38;;;;;;;21.35;12.35;;;16.30;99.90;;;;;;5043392;28;20049;-25
2023/07/23 08:16:05;;;;;;;17.65;12.27;;;16.40;99.90;;;;;;5053559;28;20083;-25
2023/07/23 08:18:31;;;;;;;19.50;12.40;;;16.20;99.90;;;;;;5073248;28;20156;-24
2023/07/23 08:20:58;;;;;;;19.80;12.60;;;16.30;99.90;;;;;;5062461;28;20182;-25
2023/07/23 08:23:26;;;;;;;17.02;11.55;;;16.30;99.90;;;;;;5055076;28;20074;-25
2023/07/23 08:25:56;;;;;;;15.50;11.35;;;16.20;99.90;;;;;;5055917;28;20045;-26
2023/07/23 08:28:33;;;;;;;15.45;10.65;;;16.20;99.90;;;;;;5055925;28;20056;-25
2023/07/23 08:31:01;;;;;;;20.08;11.77;;;16.30;99.90;;;;;;5055504;28;20182;-25
2023/07/23 08:33:31;;;;;;;22.52;10.43;;;16.30;99.90;;;;;;5039450;28;20527;-25
2023/07/23 08:36:05;;;;;;;16.52;12.63;;;16.20;99.90;;;;;;5034790;28;20056;-25
2023/07/23 08:38:31;;;;;;;17.48;12.50;;;16.20;99.90;;;;;;5034616;28;20076;-25
2023/07/23 08:41:00;;;;;;;18.95;14.63;;;16.30;99.90;;;;;;5036126;28;20049;-26
2023/07/23 08:43:45;;;;;;;15.80;13.48;;;16.20;99.90;;;;;;5068640;28;20060;-25
2023/07/23 08:46:22;;;;;;;18.00;14.07;;;16.20;99.90;;;;;;5075601;28;20521;-25
2023/07/23 08:49:09;;;;;;;16.17;13.10;;;16.20;99.90;;;;;;5076485;28;20433;-26
2023/07/23 08:51:45;;;;;;;18.45;14.25;;;16.30;99.90;;;;;;5075518;28;20040;-25
2023/07/23 08:54:15;;;;;;;18.85;13.85;;;16.30;99.90;;;;;;5076107;28;20448;-25
2023/07/23 08:56:42;;;;;;;17.17;14.60;;;16.30;99.90;;;;;;5076247;28;20087;-25
2023/07/23 08:59:08;;;;;;;16.42;12.95;;;16.30;99.90;;;;;;5052767;28;20490;-26
2023/07/23 09:01:39;;;;;;;15.45;11.32;;;16.30;99.90;;;;;;5075321;28;20403;-26
2023/07/23 09:04:07;;;;;;;15.15;11.95;;;16.30;99.90;;;;;;5075114;28;20440;-27
2023/07/23 09:06:34;;;;;;;17.25;12.27;;;16.30;99.90;;;;;;5075474;28;20452;-27
2023/07/23 09:09:01;;;;;;;17.65;12.75;;;16.20;99.90;;;;;;5067888;28;20051;-28
2023/07/23 09:11:31;;;;;;;17.48;12.27;;;16.30;99.90;;;;;;5055096;28;20047;-26
2023/07/23 09:14:10;;;;;;;13.02;10.75;;;16.20;99.90;;;;;;5052960;28;20052;-27
2023/07/23 09:16:44;;;;;;;16.35;12.00;;;16.20;99.90;;;;;;5072814;28;20045;-27
2023/07/23 09:19:14;;;;;;;16.08;11.98;;;16.20;99.90;;;;;;5057129;28;20123;-27
2023/07/23 09:21:42;;;;;;;14.60;12.43;;;16.20;99.90;;;;;;5034655;28;20046;-28
2023/07/23 09:24:20;;;;;;;19.55;12.95;;;16.20;99.90;;;;;;5035407;28;20571;-27
2023/07/23 09:26:46;;;;;;;14.20;11.85;;;16.20;99.90;;;;;;5055335;28;20053;-27
2023/07/23 09:29:15;;;;;;;14.93;11.25;;;16.20;99.90;;;;;;5035134;28;20079;-26
2023/07/23 09:31:45;;;;;;;16.55;12.40;;;16.20;99.90;;;;;;5053857;28;20147;-27
2023/07/23 09:34:11;;;;;;;14.07;10.82;;;16.20;99.90;;;;;;5054643;28;20140;-28
2023/07/23 09:36:36;;;;;;;15.73;11.73;;;16.20;99.90;;;;;;5053442;28;20110;-26
2023/07/23 09:39:05;;;;;;;14.80;11.13;;;16.20;99.90;;;;;;5055410;28;20044;-27
2023/07/23 09:41:36;;;;;;;13.63;10.52;;;16.20;99.90;;;;;;5036955;28;20048;-27
2023/07/23 09:44:13;;;;;;;18.25;12.32;;;16.20;99.90;;;;;;5053667;28;20134;-27
2023/07/23 09:46:44;;;;;;;14.05;10.32;;;16.20;99.90;;;;;;5054511;28;20107;-26
2023/07/23 09:49:10;;;;;;;14.68;12.15;;;16.30;99.90;;;;;;5054745;28;20051;-28
2023/07/23 09:51:37;;;;;;;18.80;12.90;;;16.30;99.90;;;;;;5054292;28;20067;-27
2023/07/23 09:54:04;;;;;;;15.98;11.85;;;16.30;99.90;;;;;;5054302;28;20092;-27
2023/07/23 09:56:34;;;;;;;19.92;13.02;;;16.40;99.90;;;;;;5054264;28;20479;-27
2023/07/23 09:59:03;;;;;;;19.30;14.02;;;16.40;99.90;;;;;;5054252;28;20053;-27
2023/07/23 10:01:29;;;;;;;18.98;13.38;;;16.30;99.90;;;;;;5054406;28;20486;-27
2023/07/23 10:03:58;;;;;;;21.48;13.50;;;16.30;99.90;;;;;;5054130;28;20128;-28
2023/07/23 10:06:24;;;;;;;19.25;14.65;;;16.30;99.90;;;;;;5054663;28;20522;-27
2023/07/23 10:08:50;;;;;;;16.00;11.60;;;16.30;99.90;;;;;;5054612;28;20387;-27
2023/07/23 10:11:17;;;;;;;20.35;13.88;;;16.30;99.90;;;;;;5053611;28;20487;-27
2023/07/23 10:13:44;;;;;;;19.63;14.27;;;16.30;99.90;;;;;;5054524;28;20041;-27
2023/07/23 10:16:21;;;;;;;19.98;13.55;;;16.40;99.90;;;;;;5053909;28;20049;-27
2023/07/23 10:18:51;;;;;;;17.83;11.52;;;16.40;99.90;;;;;;5054011;28;20041;-27
2023/07/23 10:21:19;;;;;;;18.65;12.65;;;16.40;99.90;;;;;;5052926;28;20149;-27
2023/07/23 10:23:55;;;;;;;16.98;13.02;;;16.50;99.90;;;;;;5054406;28;20053;-28
2023/07/23 10:26:23;;;;;;;17.45;12.05;;;16.50;99.90;;;;;;5054600;28;20091;-29
2023/07/23 10:28:51;;;;;;;15.63;10.27;;;16.40;99.90;;;;;;5052490;28;20048;-27
2023/07/23 10:31:27;;;;;;;17.45;12.32;;;16.50;99.90;;;;;;5053325;28;20556;-27
2023/07/23 10:33:53;;;;;;;17.13;10.80;;;16.50;99.90;;;;;;5053283;28;20063;-28
2023/07/23 10:36:23;;;;;;;13.40;10.60;;;16.50;99.90;;;;;;5053428;28;20491;-27
2023/07/23 10:39:15;;;;;;;14.23;9.65;;;16.50;99.90;;;;;;5054293;28;20411;-28
2023/07/23 10:41:55;;;;;;;16.67;10.35;;;16.50;99.90;;;;;;5053413;28;20045;-28
2023/07/23 10:44:30;;;;;;;15.05;10.18;;;16.60;99.90;;;;;;5053307;28;20503;-28
2023/07/23 10:46:57;;;;;;;16.30;11.10;;;16.70;99.90;;;;;;5053327;28;20399;-28
2023/07/23 10:49:27;;;;;;;15.82;10.77;;;16.80;99.90;;;;;;5053773;28;20457;-28
2023/07/23 10:51:54;;;;;;;14.15;10.73;;;16.90;99.90;;;;;;5053532;28;20123;-28
2023/07/23 10:54:21;;;;;;;13.85;9.93;;;17.00;99.90;;;;;;5053717;28;20475;-28
2023/07/23 10:56:49;;;;;;;15.20;11.00;;;17.00;99.90;;;;;;5053746;28;20114;-29
2023/07/23 10:59:19;;;;;;;15.55;10.55;;;17.00;99.90;;;;;;5053434;28;20399;-28
2023/07/23 11:01:45;;;;;;;15.55;11.15;;;17.00;99.90;;;;;;5052461;28;20483;-28
2023/07/23 11:04:15;;;;;;;14.55;9.63;;;17.10;99.90;;;;;;5053416;28;20049;-28
2023/07/23 11:06:55;;;;;;;16.80;10.57;;;17.10;99.90;;;;;;5053392;28;20045;-28
2023/07/23 11:09:28;;;;;;;15.65;10.32;;;17.10;99.90;;;;;;5053414;28;20044;-28
2023/07/23 11:11:55;;;;;;;12.65;9.60;;;17.20;99.90;;;;;;5053308;28;20088;-28
2023/07/23 11:14:29;;;;;;;13.65;9.50;;;17.20;99.90;;;;;;5052694;28;20509;-30
2023/07/23 11:16:56;;;;;;;15.57;11.10;;;17.20;99.90;;;;;;5054121;28;20440;-29
2023/07/23 11:19:24;;;;;;;12.95;9.98;;;17.20;99.90;;;;;;5053249;28;20045;-28
2023/07/23 11:21:56;;;;;;;12.85;10.05;;;17.30;99.90;;;;;;5053282;28;20068;-28
2023/07/23 11:24:23;;;;;;;13.77;10.67;;;17.30;99.90;;;;;;5052831;28;20383;-29
2023/07/23 11:26:49;;;;;;;16.42;10.95;;;17.40;99.90;;;;;;5053097;28;20271;-29
2023/07/23 11:29:16;;;;;;;16.00;9.77;;;17.50;99.90;;;;;;5052083;28;20053;-29
2023/07/23 11:31:42;;;;;;;14.20;9.68;;;17.50;99.90;;;;;;5053058;28;20049;-29
2023/07/23 11:34:08;;;;;;;15.00;9.25;;;17.40;99.90;;;;;;5053271;28;20057;-29
2023/07/23 11:36:38;;;;;;;14.80;9.93;;;17.40;99.90;;;;;;5052437;28;20390;-29
2023/07/23 11:39:05;;;;;;;10.88;8.02;;;17.40;99.90;;;;;;5053030;28;20048;-29
2023/07/23 11:41:37;;;;;;;12.85;9.18;;;17.30;99.90;;;;;;5053866;28;20041;-30
2023/07/23 11:44:03;;;;;;;17.88;10.15;;;17.20;99.90;;;;;;5053075;28;20139;-28
2023/07/23 11:46:37;;;;;;;18.08;10.32;;;17.20;99.90;;;;;;5054890;28;20049;-29
2023/07/23 11:49:10;;;;;;;13.55;10.27;;;17.10;99.90;;;;;;5056406;28;20072;-29
2023/07/23 11:51:40;;;;;;;;;;;17.00;99.90;;;;;;5058479;28;20094;-29
2023/07/23 11:54:13;;;;;;;12.35;9.10;;;17.00;99.90;;;;;;5056580;28;19982;-29
2023/07/23 11:56:45;;;;;;;16.40;10.68;;;16.90;99.90;;;;;;5056603;28;20049;-29
2023/07/23 11:59:13;;;;;;;14.23;9.73;;;16.90;99.90;;;;;;5039916;28;20064;-29
2023/07/23 12:01:40;;;;;;;12.85;9.35;;;16.90;99.90;;;;;;5056440;28;20048;-29
2023/07/23 12:04:07;;;;;;;16.15;10.82;;;16.90;99.90;;;;;;5038830;28;20090;-29
2023/07/23 12:06:35;;;;;;;12.90;10.00;;;16.90;99.90;;;;;;5055628;28;20049;-29
2023/07/23 12:09:05;;;;;;;15.20;10.70;;;17.00;99.90;;;;;;5056607;28;20190;-30
2023/07/23 12:11:32;;;;;;;14.32;9.88;;;17.00;99.90;;;;;;5055384;28;20057;-28
2023/07/23 12:14:02;;;;;;;14.38;10.85;;;17.00;99.90;;;;;;5055996;28;20499;-29
2023/07/23 12:16:34;;;;;;;13.93;11.32;;;17.00;99.90;;;;;;5056823;28;20131;-30
2023/07/23 12:19:26;;;;;;;13.15;8.55;;;17.10;99.90;;;;;;5056127;28;20049;-28
2023/07/23 12:21:54;;;;;;;18.45;10.25;;;17.10;99.90;;;;;;5053778;28;20057;-29
2023/07/23 12:24:23;;;;;;;12.60;9.95;;;17.10;99.90;;;;;;5056088;28;20049;-30
2023/07/23 12:26:51;;;;;;;12.32;9.02;;;17.20;99.90;;;;;;5056515;28;20494;-30
2023/07/23 12:29:18;;;;;;;13.02;10.00;;;17.30;99.90;;;;;;5055945;28;20053;-30
2023/07/23 12:31:46;;;;;;;14.02;8.63;;;17.40;99.90;;;;;;5054657;28;20049;-30